Time;durP1;ratioP1;P1;durP2;ratioP2;P2;SDS_P1;SDS_P2;PMS_P1;PMS_P2;Temp;Humidity;BMP_temperature;BMP_pressure;BME280_temperature;BME280_humidity;BME280_pressure;Samples;Min_cycle;Max_cycle;Signal;HPM_P1;HPM_P2
2021/03/25 00:02:08;;;;;;;12.07;9.73;;;9.90;51.80;;;;;;5119326;27;20451;-77
2021/03/25 00:04:36;;;;;;;12.53;8.50;;;9.90;51.60;;;;;;5098182;28;20460;-79
2021/03/25 00:07:04;;;;;;;12.23;7.70;;;9.80;52.10;;;;;;5105916;28;21805;-77
2021/03/25 00:09:35;;;;;;;11.20;8.13;;;9.80;52.40;;;;;;5124388;28;20685;-78
2021/03/25 00:12:02;;;;;;;13.43;8.10;;;9.70;51.70;;;;;;5116168;28;20486;-79
2021/03/25 00:14:30;;;;;;;12.90;10.37;;;9.70;51.10;;;;;;5120917;28;20459;-79
2021/03/25 00:16:58;;;;;;;13.00;10.73;;;9.70;52.20;;;;;;5121385;28;20874;-80
2021/03/25 00:19:25;;;;;;;14.77;9.80;;;9.60;53.80;;;;;;5106560;28;20473;-78
2021/03/25 00:21:52;;;;;;;10.30;8.60;;;9.60;54.60;;;;;;5108079;28;20458;-79
2021/03/25 00:24:21;;;;;;;14.90;8.90;;;9.90;54.30;;;;;;5122273;28;20504;-79
2021/03/25 00:26:48;;;;;;;16.13;11.47;;;9.50;53.30;;;;;;5117012;27;20450;-79
2021/03/25 00:29:16;;;;;;;15.27;9.67;;;9.50;54.60;;;;;;5105556;28;20465;-79
2021/03/25 00:31:45;;;;;;;14.63;10.60;;;9.50;53.90;;;;;;5121538;28;20465;-78
2021/03/25 00:34:14;;;;;;;12.57;8.60;;;9.50;54.50;;;;;;5121279;27;20446;-79
2021/03/25 00:36:42;;;;;;;17.77;10.17;;;9.50;53.60;;;;;;5104948;28;20482;-79
2021/03/25 00:39:11;;;;;;;14.90;9.47;;;9.40;54.50;;;;;;5116545;28;20913;-79
2021/03/25 00:41:39;;;;;;;11.53;8.50;;;9.40;54.30;;;;;;5124036;27;20504;-77
2021/03/25 00:44:06;;;;;;;13.47;8.80;;;9.30;54.50;;;;;;5123864;27;20465;-78
2021/03/25 00:46:34;;;;;;;14.90;10.13;;;9.30;56.00;;;;;;5110603;27;20459;-78
2021/03/25 00:49:02;;;;;;;10.73;7.73;;;9.30;55.60;;;;;;5124656;27;21021;-78
2021/03/25 00:51:30;;;;;;;17.60;8.50;;;9.30;56.00;;;;;;5117132;27;20515;-77
2021/03/25 00:53:57;;;;;;;10.90;7.97;;;9.30;55.60;;;;;;5116060;27;20547;-77
2021/03/25 00:56:24;;;;;;;9.47;8.03;;;9.30;55.40;;;;;;5126924;27;20455;-76
2021/03/25 00:58:51;;;;;;;13.33;8.77;;;9.30;55.90;;;;;;5109505;27;20497;-77
2021/03/25 01:01:19;;;;;;;9.80;7.63;;;9.20;55.90;;;;;;5128978;27;20493;-78
2021/03/25 01:03:46;;;;;;;11.23;8.00;;;9.30;55.40;;;;;;5119277;27;20456;-77
2021/03/25 01:06:14;;;;;;;14.03;8.50;;;9.20;55.30;;;;;;5125044;27;20545;-78
2021/03/25 01:08:41;;;;;;;13.03;7.80;;;9.20;55.40;;;;;;5097697;27;20869;-77
2021/03/25 01:11:13;;;;;;;10.13;8.27;;;9.20;57.50;;;;;;5131465;27;20462;-78
2021/03/25 01:13:42;;;;;;;12.43;7.97;;;9.10;55.50;;;;;;5122294;27;20453;-78
2021/03/25 01:16:14;;;;;;;10.53;7.00;;;9.10;57.00;;;;;;5115756;27;20531;-78
2021/03/25 01:18:42;;;;;;;9.60;7.63;;;9.10;56.90;;;;;;5126936;27;20977;-77
2021/03/25 01:21:09;;;;;;;7.57;6.77;;;9.10;57.10;;;;;;5110950;27;20578;-76
2021/03/25 01:23:37;;;;;;;12.80;8.17;;;9.10;57.70;;;;;;5119312;27;21298;-77
2021/03/25 01:26:05;;;;;;;10.50;7.20;;;9.00;56.70;;;;;;5106017;27;20579;-77
2021/03/25 01:28:32;;;;;;;10.63;7.27;;;9.00;57.30;;;;;;5127152;27;20911;-77
2021/03/25 01:30:59;;;;;;;8.97;7.17;;;9.00;57.20;;;;;;5110566;27;20504;-79
2021/03/25 01:33:26;;;;;;;8.60;6.93;;;9.00;57.60;;;;;;5117616;27;20882;-78
2021/03/25 01:35:53;;;;;;;9.67;7.50;;;9.00;57.70;;;;;;5116876;27;20463;-78
2021/03/25 01:38:23;;;;;;;10.30;7.57;;;9.00;58.70;;;;;;5118145;27;20849;-76
2021/03/25 01:40:53;;;;;;;12.03;7.27;;;9.00;58.30;;;;;;5107495;27;20474;-77
2021/03/25 01:43:25;;;;;;;8.90;6.97;;;8.90;57.90;;;;;;5107427;27;20462;-76
2021/03/25 01:46:06;;;;;;;8.27;6.60;;;8.90;58.90;;;;;;5116073;27;20502;-77
2021/03/25 01:48:36;;;;;;;8.67;6.63;;;8.90;59.40;;;;;;5102422;27;20885;-76
2021/03/25 01:51:06;;;;;;;8.07;7.27;;;8.90;59.90;;;;;;5117015;27;21006;-77
2021/03/25 01:54:00;;;;;;;10.90;7.10;;;8.90;60.00;;;;;;5106860;27;20456;-77
2021/03/25 01:56:57;;;;;;;9.37;6.80;;;8.90;59.90;;;;;;5122927;27;20497;-78
2021/03/25 01:59:46;;;;;;;9.63;6.63;;;8.90;60.30;;;;;;5105987;27;20485;-78
2021/03/25 02:02:19;;;;;;;8.93;6.60;;;8.80;60.80;;;;;;5118441;27;20461;-78
2021/03/25 02:04:58;;;;;;;12.53;6.57;;;8.80;62.00;;;;;;5126264;27;20815;-78
2021/03/25 02:07:38;;;;;;;8.70;6.40;;;8.80;61.50;;;;;;5122591;27;20437;-78
2021/03/25 02:10:12;;;;;;;6.67;5.97;;;8.80;61.30;;;;;;5104607;27;20483;-78
2021/03/25 02:12:50;;;;;;;7.93;6.30;;;8.80;61.30;;;;;;5118183;27;20461;-77
2021/03/25 02:15:26;;;;;;;9.60;6.90;;;8.70;61.40;;;;;;5125279;27;20458;-78
2021/03/25 02:18:00;;;;;;;10.60;5.80;;;8.70;63.90;;;;;;5109052;27;20472;-79
2021/03/25 02:20:59;;;;;;;7.40;6.20;;;8.70;63.10;;;;;;5127501;27;20852;-77
2021/03/25 02:23:47;;;;;;;8.10;7.30;;;8.70;64.30;;;;;;5120651;27;20501;-79
2021/03/25 02:26:21;;;;;;;10.43;6.40;;;8.70;65.50;;;;;;5110266;27;20459;-79
2021/03/25 02:29:14;;;;;;;8.00;6.20;;;8.70;65.20;;;;;;5120657;27;20454;-80
2021/03/25 02:31:46;;;;;;;6.60;5.00;;;8.60;66.00;;;;;;5114846;27;20445;-77
2021/03/25 02:34:17;;;;;;;6.47;5.80;;;8.60;66.80;;;;;;5124901;27;20461;-79
2021/03/25 02:36:51;;;;;;;6.57;5.53;;;8.60;67.50;;;;;;5125526;27;20462;-80
2021/03/25 02:39:23;;;;;;;10.20;6.90;;;8.50;68.30;;;;;;5107285;27;20478;-79
2021/03/25 02:42:11;;;;;;;6.37;5.30;;;8.50;68.50;;;;;;5124914;27;20684;-79
2021/03/25 02:44:47;;;;;;;7.70;6.40;;;8.50;69.10;;;;;;5111975;27;20454;-80
2021/03/25 02:47:16;;;;;;;6.03;4.80;;;8.50;67.90;;;;;;5125160;27;20959;-79
2021/03/25 02:49:48;;;;;;;9.73;5.97;;;8.40;67.80;;;;;;5104692;27;20488;-78
2021/03/25 02:52:20;;;;;;;6.60;5.90;;;8.20;66.50;;;;;;5125207;27;20777;-80
2021/03/25 02:54:48;;;;;;;6.10;5.10;;;8.40;67.50;;;;;;5127847;27;20568;-79
2021/03/25 02:57:20;;;;;;;10.17;6.57;;;8.40;68.10;;;;;;5112618;27;20541;-80
2021/03/25 02:59:49;;;;;;;7.90;5.63;;;8.70;67.40;;;;;;5109760;27;20563;-78
2021/03/25 03:02:23;;;;;;;8.83;6.70;;;8.40;69.20;;;;;;5110623;27;20952;-79
2021/03/25 03:04:53;;;;;;;7.97;6.33;;;8.40;70.70;;;;;;5122361;27;20461;-80
2021/03/25 03:07:25;;;;;;;6.90;6.13;;;8.30;69.50;;;;;;5124035;27;20442;-79
2021/03/25 03:09:56;;;;;;;8.73;7.20;;;8.30;70.00;;;;;;5120139;27;20488;-79
2021/03/25 03:12:37;;;;;;;8.53;5.90;;;8.30;70.70;;;;;;5116849;27;20453;-78
2021/03/25 03:15:09;;;;;;;8.47;6.47;;;8.30;71.00;;;;;;5138753;27;20502;-78
2021/03/25 03:17:43;;;;;;;8.37;6.20;;;8.30;74.10;;;;;;5123849;27;20492;-78
2021/03/25 03:20:16;;;;;;;10.20;7.50;;;8.30;74.70;;;;;;5124209;27;20474;-78
2021/03/25 03:22:43;;;;;;;6.53;5.63;;;8.30;73.80;;;;;;5123913;27;20465;-78
2021/03/25 03:25:14;;;;;;;8.60;6.20;;;8.30;76.10;;;;;;5119053;27;20957;-78
2021/03/25 03:27:45;;;;;;;7.77;6.30;;;8.30;74.90;;;;;;5109720;27;21038;-77
2021/03/25 03:30:17;;;;;;;6.73;5.90;;;8.30;73.60;;;;;;5101202;27;20493;-77
2021/03/25 03:32:52;;;;;;;5.57;4.97;;;8.30;74.60;;;;;;5104959;27;20522;-79
2021/03/25 03:35:25;;;;;;;9.37;6.90;;;8.30;75.80;;;;;;5121499;27;20448;-78
2021/03/25 03:37:56;;;;;;;10.07;6.47;;;8.30;76.50;;;;;;5122711;27;20468;-78
2021/03/25 03:40:27;;;;;;;8.80;7.13;;;8.20;77.90;;;;;;5120294;27;20833;-78
2021/03/25 03:42:59;;;;;;;9.03;6.70;;;8.20;77.50;;;;;;5099813;27;20463;-78
2021/03/25 03:45:28;;;;;;;8.13;7.33;;;8.20;78.10;;;;;;5119478;27;20464;-78
2021/03/25 03:48:01;;;;;;;8.43;6.37;;;8.20;80.00;;;;;;5108466;27;20877;-79
2021/03/25 03:50:36;;;;;;;10.87;7.37;;;8.20;78.80;;;;;;5123622;27;20482;-79
2021/03/25 03:53:03;;;;;;;6.00;5.40;;;8.10;81.70;;;;;;5120983;27;20496;-78
2021/03/25 03:55:31;;;;;;;6.90;6.30;;;8.10;80.20;;;;;;5121544;27;20459;-79
2021/03/25 03:58:14;;;;;;;7.10;6.27;;;8.10;79.30;;;;;;5126737;27;20464;-78
2021/03/25 04:00:45;;;;;;;11.10;6.20;;;8.10;76.90;;;;;;5106085;27;20607;-79
2021/03/25 04:03:20;;;;;;;6.80;5.73;;;8.10;78.80;;;;;;5122469;27;21133;-80
2021/03/25 04:05:53;;;;;;;7.27;5.90;;;8.10;80.30;;;;;;5122247;27;20488;-80
2021/03/25 04:08:26;;;;;;;7.00;5.73;;;8.10;79.20;;;;;;5126210;28;20458;-78
2021/03/25 04:11:01;;;;;;;7.77;5.50;;;8.10;81.50;;;;;;5124582;27;20500;-79
2021/03/25 04:13:33;;;;;;;9.03;6.03;;;8.10;78.40;;;;;;5103215;28;20448;-80
2021/03/25 04:16:01;;;;;;;7.30;5.67;;;8.00;78.90;;;;;;5126443;27;20459;-79
2021/03/25 04:18:40;;;;;;;6.53;5.63;;;8.00;78.70;;;;;;5128839;27;21131;-80
2021/03/25 04:21:11;;;;;;;6.07;4.80;;;8.00;77.10;;;;;;5130228;27;20580;-78
2021/03/25 04:23:41;;;;;;;5.70;5.10;;;8.00;78.00;;;;;;5126955;27;20456;-79
2021/03/25 04:26:19;;;;;;;6.73;6.03;;;8.00;80.20;;;;;;5101236;27;20462;-79
2021/03/25 04:28:52;;;;;;;9.00;6.33;;;8.00;80.20;;;;;;5121023;27;20453;-78
2021/03/25 04:31:19;;;;;;;7.27;6.57;;;8.00;79.80;;;;;;5109694;27;20459;-79
2021/03/25 04:33:47;;;;;;;8.70;6.67;;;8.00;83.60;;;;;;5111093;27;21072;-79
2021/03/25 04:36:19;;;;;;;6.90;5.40;;;8.10;85.90;;;;;;5127824;27;21173;-79
2021/03/25 04:38:48;;;;;;;7.13;5.50;;;8.00;84.30;;;;;;5129038;27;20477;-79
2021/03/25 04:41:17;;;;;;;5.80;5.20;;;8.40;81.40;;;;;;5111143;27;20451;-80
2021/03/25 04:43:46;;;;;;;8.03;5.70;;;7.90;79.80;;;;;;5114160;27;20453;-81
2021/03/25 04:46:30;;;;;;;7.60;6.30;;;7.90;80.40;;;;;;5124767;27;20436;-80
2021/03/25 04:49:04;;;;;;;7.20;5.57;;;8.00;86.40;;;;;;5129445;27;20468;-81
2021/03/25 04:51:31;;;;;;;5.57;5.17;;;8.00;86.90;;;;;;5125400;27;20477;-79
2021/03/25 04:54:22;;;;;;;7.50;6.30;;;8.00;86.40;;;;;;5119295;27;20471;-79
2021/03/25 04:56:49;;;;;;;7.83;6.67;;;8.00;85.80;;;;;;5104146;27;20467;-79
2021/03/25 04:59:18;;;;;;;6.60;5.93;;;7.90;84.70;;;;;;5128796;27;20485;-79
2021/03/25 05:01:45;;;;;;;6.93;6.30;;;8.00;84.60;;;;;;5124080;27;20512;-80
2021/03/25 05:04:14;;;;;;;6.73;5.60;;;7.90;84.30;;;;;;5126615;27;20472;-79
2021/03/25 05:06:47;;;;;;;11.27;6.70;;;7.90;85.00;;;;;;5101992;27;20464;-78
2021/03/25 05:09:16;;;;;;;8.93;5.63;;;8.20;82.50;;;;;;5126250;27;20476;-79
2021/03/25 05:11:44;;;;;;;8.17;5.97;;;7.90;83.80;;;;;;5132634;27;20461;-79
2021/03/25 05:14:20;;;;;;;5.80;5.20;;;7.90;82.50;;;;;;5108670;27;20463;-79
2021/03/25 05:16:57;;;;;;;6.30;5.20;;;7.90;85.20;;;;;;5111364;27;20828;-79
2021/03/25 05:19:34;;;;;;;6.43;5.63;;;7.90;84.60;;;;;;5123926;27;20462;-77
2021/03/25 05:22:10;;;;;;;5.83;5.30;;;7.90;88.00;;;;;;5124427;27;20465;-79
2021/03/25 05:24:43;;;;;;;7.82;5.82;;;7.80;87.10;;;;;;5124242;27;20452;-79
2021/03/25 05:27:16;;;;;;;6.03;5.43;;;7.80;87.20;;;;;;5121360;27;20242;-78
2021/03/25 05:29:45;;;;;;;7.00;5.33;;;8.00;86.40;;;;;;5129616;27;20475;-78
2021/03/25 05:32:17;;;;;;;6.10;5.43;;;8.10;90.00;;;;;;5112403;27;20463;-78
2021/03/25 05:34:48;;;;;;;5.70;5.10;;;7.90;90.30;;;;;;5110912;27;20987;-79
2021/03/25 05:37:16;;;;;;;5.03;4.47;;;7.80;90.20;;;;;;5127781;27;20453;-78
2021/03/25 05:39:43;;;;;;;6.07;4.90;;;7.80;90.20;;;;;;5106047;27;21213;-79
2021/03/25 05:42:19;;;;;;;7.07;6.03;;;7.80;90.60;;;;;;5110132;27;20821;-79
2021/03/25 05:45:17;;;;;;;5.73;5.20;;;7.80;91.00;;;;;;5121866;27;20887;-79
2021/03/25 05:48:26;;;;;;;6.43;5.20;;;7.70;91.30;;;;;;5127729;27;20448;-79
2021/03/25 05:51:02;;;;;;;7.43;5.57;;;7.70;91.60;;;;;;5110456;27;20579;-78
2021/03/25 05:53:47;;;;;;;6.43;5.67;;;7.70;92.80;;;;;;5103134;27;20465;-79
2021/03/25 05:56:24;;;;;;;8.03;6.20;;;7.80;92.70;;;;;;5137656;27;21003;-79
2021/03/25 05:58:56;;;;;;;8.43;5.80;;;7.80;92.90;;;;;;5125296;27;20503;-78
2021/03/25 06:01:44;;;;;;;6.43;5.50;;;7.80;94.10;;;;;;5101852;27;20466;-79
2021/03/25 06:04:17;;;;;;;9.13;7.47;;;7.80;95.50;;;;;;5122486;27;20538;-78
2021/03/25 06:07:09;;;;;;;8.97;5.73;;;7.90;96.00;;;;;;5120965;27;20466;-78
2021/03/25 06:09:48;;;;;;;8.20;5.67;;;7.90;95.50;;;;;;5112428;27;20470;-79
2021/03/25 06:12:23;;;;;;;6.00;5.40;;;7.90;95.40;;;;;;5104131;27;20460;-79
2021/03/25 06:15:08;;;;;;;7.03;6.33;;;7.90;95.80;;;;;;5118077;27;20457;-80
2021/03/25 06:17:46;;;;;;;6.30;5.67;;;7.90;95.60;;;;;;5119645;27;20492;-79
2021/03/25 06:20:33;;;;;;;6.57;4.90;;;8.00;95.90;;;;;;5116287;27;20474;-79
2021/03/25 06:23:46;;;;;;;6.47;5.70;;;8.00;98.30;;;;;;5115756;27;20468;-79
2021/03/25 06:26:27;;;;;;;7.40;6.37;;;8.10;99.90;;;;;;5109461;27;20453;-79
2021/03/25 06:29:02;;;;;;;8.40;6.20;;;8.20;99.90;;;;;;5117918;27;20452;-80
2021/03/25 06:31:43;;;;;;;7.00;5.40;;;8.20;99.90;;;;;;5122322;27;20483;-77
2021/03/25 06:34:18;;;;;;;6.40;5.80;;;8.40;99.90;;;;;;5101160;27;20459;-78
2021/03/25 06:36:52;;;;;;;9.07;6.40;;;8.40;99.90;;;;;;5119731;27;20467;-79
2021/03/25 06:39:46;;;;;;;6.43;5.57;;;8.50;99.90;;;;;;5111404;27;20478;-80
2021/03/25 06:42:38;;;;;;;9.00;5.43;;;8.60;99.90;;;;;;5119197;27;20977;-80
2021/03/25 06:45:22;;;;;;;6.30;5.70;;;8.60;99.90;;;;;;5121770;27;20991;-80
2021/03/25 06:47:58;;;;;;;7.20;5.87;;;8.70;99.90;;;;;;5124287;27;20512;-80
2021/03/25 06:50:30;;;;;;;12.40;6.73;;;8.70;99.90;;;;;;5125859;27;20563;-78
2021/03/25 06:53:05;;;;;;;7.10;6.20;;;8.80;99.90;;;;;;5122608;27;20475;-82
2021/03/25 06:55:33;;;;;;;6.73;5.73;;;8.90;99.90;;;;;;5121759;27;20455;-81
2021/03/25 06:58:04;;;;;;;6.70;6.03;;;9.00;99.90;;;;;;5130995;27;20564;-82
2021/03/25 07:00:36;;;;;;;5.77;4.67;;;9.10;99.90;;;;;;5122224;27;20567;-80
2021/03/25 07:03:06;;;;;;;6.30;5.70;;;9.20;99.90;;;;;;5126551;27;20452;-82
2021/03/25 07:05:36;;;;;;;11.33;8.40;;;9.30;99.90;;;;;;5130227;27;21185;-82
2021/03/25 07:08:11;;;;;;;7.27;6.57;;;9.50;99.90;;;;;;5108545;28;20827;-83
2021/03/25 07:10:39;;;;;;;6.90;6.20;;;9.60;99.90;;;;;;5111165;27;20913;-80
2021/03/25 07:13:08;;;;;;;10.67;7.57;;;9.60;99.90;;;;;;5106729;27;20481;-81
2021/03/25 07:15:47;;;;;;;9.80;7.40;;;9.80;99.90;;;;;;5113220;27;20996;-81
2021/03/25 07:18:31;;;;;;;7.23;6.63;;;9.90;99.90;;;;;;5126730;27;21422;-82
2021/03/25 07:21:28;;;;;;;8.47;6.90;;;10.00;99.90;;;;;;5103422;27;20470;-80
2021/03/25 07:23:58;;;;;;;6.80;5.70;;;10.10;99.90;;;;;;5119501;27;20449;-81
2021/03/25 07:26:32;;;;;;;6.03;5.07;;;10.20;99.90;;;;;;5117420;27;20835;-79
2021/03/25 07:29:19;;;;;;;6.27;5.47;;;10.30;97.50;;;;;;5108940;27;20453;-82
2021/03/25 07:32:13;;;;;;;8.40;5.33;;;10.60;99.90;;;;;;5110943;27;20461;-79
2021/03/25 07:34:44;;;;;;;7.70;5.10;;;10.70;99.80;;;;;;5116782;27;21195;-79
2021/03/25 07:37:14;;;;;;;7.97;5.70;;;10.90;97.20;;;;;;5117326;27;20450;-80
2021/03/25 07:39:44;;;;;;;7.30;5.33;;;11.00;96.80;;;;;;5116507;27;20470;-80
2021/03/25 07:42:12;;;;;;;7.43;5.70;;;11.20;96.60;;;;;;5116280;27;20474;-81
2021/03/25 07:44:42;;;;;;;9.53;5.60;;;11.20;97.60;;;;;;5113828;27;20605;-80
2021/03/25 07:47:32;;;;;;;6.47;4.00;;;11.30;96.20;;;;;;5113936;27;20451;-80
2021/03/25 07:50:21;;;;;;;4.23;3.60;;;11.50;94.00;;;;;;5105569;27;20507;-81
2021/03/25 07:52:49;;;;;;;3.97;2.80;;;11.50;90.00;;;;;;5118374;27;20450;-80
2021/03/25 07:55:23;;;;;;;5.30;4.80;;;11.70;86.80;;;;;;5101330;27;20509;-79
2021/03/25 07:57:52;;;;;;;4.00;3.60;;;11.90;90.30;;;;;;5122399;27;20529;-80
2021/03/25 08:00:29;;;;;;;5.40;3.17;;;12.10;89.50;;;;;;5116862;27;20467;-80
2021/03/25 08:03:14;;;;;;;5.20;3.10;;;12.30;84.20;;;;;;5117392;27;20451;-79
2021/03/25 08:05:42;;;;;;;3.90;3.20;;;12.50;81.00;;;;;;5101902;28;20480;-79
2021/03/25 08:08:28;;;;;;;5.20;4.17;;;12.60;84.20;;;;;;5115812;28;20456;-80
2021/03/25 08:11:13;;;;;;;7.60;2.83;;;12.70;77.70;;;;;;5097600;28;20479;-81
2021/03/25 08:13:49;;;;;;;4.07;3.67;;;12.90;78.80;;;;;;5114875;27;20458;-79
2021/03/25 08:16:23;;;;;;;5.63;3.23;;;13.10;88.00;;;;;;5116846;28;20458;-79
2021/03/25 08:19:17;;;;;;;3.77;3.00;;;13.30;83.10;;;;;;5118892;28;20476;-79
2021/03/25 08:21:57;;;;;;;3.30;2.80;;;13.50;83.50;;;;;;5117490;27;20477;-79
2021/03/25 08:25:00;;;;;;;3.40;2.80;;;13.60;93.80;;;;;;5103246;28;20452;-79
2021/03/25 08:27:42;;;;;;;5.60;2.80;;;13.70;92.80;;;;;;5116491;27;20453;-80
2021/03/25 08:30:48;;;;;;;3.17;2.50;;;13.80;76.90;;;;;;5113596;27;20475;-79
2021/03/25 08:33:25;;;;;;;2.93;2.13;;;13.90;73.90;;;;;;5097952;28;20548;-79
2021/03/25 08:36:01;;;;;;;3.50;2.27;;;13.90;74.30;;;;;;5106938;28;20448;-80
2021/03/25 08:38:41;;;;;;;4.07;2.47;;;13.90;69.80;;;;;;5115909;28;20537;-79
2021/03/25 08:41:14;;;;;;;5.70;2.53;;;13.90;67.00;;;;;;5099347;28;20588;-79
2021/03/25 08:43:50;;;;;;;2.23;2.03;;;13.90;69.20;;;;;;5115683;28;20465;-79
2021/03/25 08:46:26;;;;;;;3.63;2.67;;;14.00;71.50;;;;;;5103837;27;20455;-80
2021/03/25 08:48:58;;;;;;;4.27;2.60;;;14.10;73.50;;;;;;5103254;28;20944;-81
2021/03/25 08:51:28;;;;;;;5.20;2.80;;;14.30;76.90;;;;;;5100745;28;20453;-80
2021/03/25 08:53:59;;;;;;;3.20;2.50;;;14.50;76.70;;;;;;5117803;28;20483;-79
2021/03/25 08:56:35;;;;;;;3.73;2.70;;;14.20;75.50;;;;;;5114400;28;20866;-77
2021/03/25 08:59:06;;;;;;;2.50;2.27;;;14.60;74.40;;;;;;5120409;27;21003;-77
2021/03/25 09:01:41;;;;;;;3.93;2.73;;;14.70;76.50;;;;;;5119172;27;20441;-77
2021/03/25 09:04:10;;;;;;;3.50;2.60;;;14.80;77.40;;;;;;5127210;27;20536;-77
2021/03/25 09:06:40;;;;;;;3.67;2.53;;;14.90;74.60;;;;;;5121156;27;20556;-78
2021/03/25 09:09:29;;;;;;;4.10;3.10;;;15.00;79.30;;;;;;5129563;27;20868;-77
2021/03/25 09:11:57;;;;;;;3.70;2.75;;;15.10;79.00;;;;;;5124009;27;20508;-76
2021/03/25 09:14:26;;;;;;;3.70;2.80;;;15.10;78.20;;;;;;5104712;27;20211;-76
2021/03/25 09:17:13;;;;;;;2.30;2.07;;;15.30;81.50;;;;;;5104410;27;20463;-77
2021/03/25 09:19:44;;;;;;;4.13;3.10;;;15.40;80.80;;;;;;5122158;27;20489;-76
2021/03/25 09:22:33;;;;;;;4.00;2.83;;;15.50;81.40;;;;;;5124632;27;20458;-76
2021/03/25 09:25:32;;;;;;;3.60;2.53;;;15.50;78.50;;;;;;5100656;27;20462;-74
2021/03/25 09:28:02;;;;;;;3.20;2.70;;;15.50;77.10;;;;;;5107985;27;20446;-77
2021/03/25 09:30:36;;;;;;;4.30;2.60;;;15.60;79.80;;;;;;5127176;27;20455;-77
2021/03/25 09:33:49;;;;;;;9.63;3.10;;;15.70;83.40;;;;;;5110417;27;20783;-75
2021/03/25 09:36:45;;;;;;;4.07;2.77;;;15.70;84.30;;;;;;5078710;27;20456;-76
2021/03/25 09:39:22;;;;;;;3.70;2.87;;;15.80;84.70;;;;;;5129506;27;20502;-77
2021/03/25 09:41:50;;;;;;;3.50;2.53;;;15.90;85.90;;;;;;5122576;27;20971;-76
2021/03/25 09:44:31;;;;;;;4.40;2.73;;;15.90;84.80;;;;;;5126457;27;20498;-76
2021/03/25 09:47:28;;;;;;;3.90;2.77;;;16.10;97.90;;;;;;5125266;27;20452;-77
2021/03/25 09:50:12;;;;;;;5.07;3.40;;;16.20;89.50;;;;;;5120376;27;20487;-76
2021/03/25 09:52:45;;;;;;;4.30;2.93;;;16.30;89.40;;;;;;5100333;27;20517;-77
2021/03/25 09:55:25;;;;;;;3.93;3.00;;;16.30;89.40;;;;;;5122656;27;20459;-77
2021/03/25 09:57:54;;;;;;;3.53;2.73;;;16.30;88.40;;;;;;5100217;27;20911;-78
2021/03/25 10:00:50;;;;;;;3.90;3.20;;;16.40;85.80;;;;;;5120590;27;20471;-77
2021/03/25 10:03:18;;;;;;;3.90;2.90;;;16.40;82.30;;;;;;5124437;27;20497;-78
2021/03/25 10:05:47;;;;;;;4.53;3.10;;;16.40;96.70;;;;;;5123242;27;20458;-76
2021/03/25 10:08:50;;;;;;;2.70;2.50;;;16.50;86.40;;;;;;5125274;27;20470;-76
2021/03/25 10:11:59;;;;;;;6.23;2.83;;;16.70;86.80;;;;;;5125941;27;20508;-77
2021/03/25 10:14:48;;;;;;;4.53;3.43;;;16.70;83.80;;;;;;5119010;27;20921;-79
2021/03/25 10:17:47;;;;;;;4.47;3.27;;;16.70;81.30;;;;;;5125652;27;20524;-77
2021/03/25 10:20:47;;;;;;;6.90;3.30;;;16.60;79.20;;;;;;5118153;27;20561;-78
2021/03/25 10:23:17;;;;;;;6.30;4.33;;;16.70;83.90;;;;;;5119238;27;20446;-79
2021/03/25 10:25:46;;;;;;;4.43;3.37;;;16.80;85.10;;;;;;5122103;27;20460;-78
2021/03/25 10:28:15;;;;;;;4.93;3.20;;;16.90;85.50;;;;;;5125328;27;20454;-79
2021/03/25 10:30:43;;;;;;;5.07;3.50;;;16.80;79.60;;;;;;5128105;27;20494;-75
2021/03/25 10:33:14;;;;;;;4.90;3.37;;;16.80;81.30;;;;;;5117451;27;21236;-79
2021/03/25 10:35:51;;;;;;;6.20;3.90;;;16.80;82.80;;;;;;5129975;27;21120;-80
2021/03/25 10:38:24;;;;;;;4.03;3.10;;;16.90;85.90;;;;;;5125428;27;20472;-79
2021/03/25 10:40:58;;;;;;;7.43;3.67;;;17.00;84.70;;;;;;5124293;27;20481;-78
2021/03/25 10:43:31;;;;;;;4.87;3.00;;;17.10;85.50;;;;;;5122152;27;20474;-80
2021/03/25 10:46:01;;;;;;;5.50;3.07;;;17.10;83.20;;;;;;5122629;27;20458;-79
2021/03/25 10:48:33;;;;;;;5.50;3.70;;;17.10;84.40;;;;;;5103242;27;20520;-78
2021/03/25 10:51:08;;;;;;;4.63;3.07;;;17.20;89.20;;;;;;5116471;27;20733;-79
2021/03/25 10:53:38;;;;;;;3.60;3.30;;;17.40;88.50;;;;;;5126361;27;20457;-77
2021/03/25 10:56:14;;;;;;;5.03;3.77;;;17.70;89.30;;;;;;5105050;27;20466;-78
2021/03/25 10:58:46;;;;;;;5.00;3.20;;;17.80;91.20;;;;;;5104833;27;21059;-77
2021/03/25 11:01:21;;;;;;;4.03;2.83;;;18.00;93.00;;;;;;5121580;27;20467;-80
2021/03/25 11:03:50;;;;;;;4.83;3.10;;;18.00;92.60;;;;;;5122658;27;20494;-79
2021/03/25 11:06:21;;;;;;;5.67;2.77;;;18.20;94.20;;;;;;5108425;27;20826;-80
2021/03/25 11:08:49;;;;;;;4.83;2.87;;;18.30;95.30;;;;;;5114487;27;20447;-79
2021/03/25 11:11:20;;;;;;;3.53;3.10;;;18.50;98.10;;;;;;5125784;27;20479;-79
2021/03/25 11:14:01;;;;;;;3.13;2.53;;;18.60;98.40;;;;;;5105661;27;21212;-79
2021/03/25 11:16:29;;;;;;;3.90;3.03;;;18.60;97.90;;;;;;5118536;27;20443;-79
2021/03/25 11:19:00;;;;;;;5.13;3.10;;;18.60;95.70;;;;;;5118025;27;20478;-79
2021/03/25 11:21:33;;;;;;;3.50;3.13;;;18.60;97.50;;;;;;5107724;27;20468;-81
2021/03/25 11:24:08;;;;;;;4.60;2.83;;;18.60;96.60;;;;;;5122292;27;20452;-79
2021/03/25 11:26:37;;;;;;;4.67;3.20;;;18.60;95.20;;;;;;5120621;27;20888;-79
2021/03/25 11:29:06;;;;;;;3.80;2.63;;;18.70;97.30;;;;;;5122287;27;20524;-81
2021/03/25 11:31:36;;;;;;;4.60;2.90;;;18.80;97.60;;;;;;5102916;27;21358;-80
2021/03/25 11:34:05;;;;;;;4.97;2.83;;;18.90;97.50;;;;;;5119221;27;20536;-79
2021/03/25 11:36:43;;;;;;;6.50;3.50;;;19.00;98.80;;;;;;5123062;27;20454;-79
2021/03/25 11:39:26;;;;;;;3.73;3.00;;;19.00;98.00;;;;;;5123144;27;20461;-80
2021/03/25 11:41:57;;;;;;;6.40;3.37;;;19.00;95.90;;;;;;5123814;27;20462;-78
2021/03/25 11:44:38;;;;;;;3.70;2.83;;;18.70;93.50;;;;;;5096021;28;20471;-80
2021/03/25 11:47:44;;;;;;;5.97;3.60;;;18.70;93.50;;;;;;5123605;27;20488;-79
2021/03/25 11:50:34;;;;;;;3.87;3.03;;;18.70;94.20;;;;;;5099767;27;20473;-80
2021/03/25 11:53:04;;;;;;;5.60;3.43;;;18.80;93.40;;;;;;5105985;27;20459;-79
2021/03/25 11:55:39;;;;;;;4.67;2.90;;;18.80;93.90;;;;;;5123171;27;20439;-81
2021/03/25 11:58:17;;;;;;;5.27;3.10;;;18.70;93.80;;;;;;5123584;27;20439;-78
2021/03/25 12:01:04;;;;;;;4.80;3.60;;;18.70;93.40;;;;;;5118397;27;20489;-75
2021/03/25 12:03:35;;;;;;;3.10;2.70;;;18.70;93.90;;;;;;5103464;27;20453;-78
2021/03/25 12:06:03;;;;;;;6.27;3.33;;;18.70;93.70;;;;;;5117561;28;20475;-80
2021/03/25 12:08:33;;;;;;;3.70;3.23;;;18.80;96.20;;;;;;5118056;28;20825;-79
2021/03/25 12:11:05;;;;;;;4.50;3.03;;;18.80;94.20;;;;;;5120579;27;20555;-81
2021/03/25 12:13:34;;;;;;;4.90;3.47;;;18.80;94.00;;;;;;5102831;28;20442;-80
2021/03/25 12:16:01;;;;;;;7.37;3.60;;;18.70;94.30;;;;;;5101571;28;20445;-78
2021/03/25 12:18:32;;;;;;;4.27;3.00;;;18.70;91.80;;;;;;5118512;28;20537;-78
2021/03/25 12:21:04;;;;;;;3.40;3.10;;;18.70;91.60;;;;;;5101182;28;20482;-79
2021/03/25 12:23:33;;;;;;;4.20;3.47;;;18.70;91.50;;;;;;5110989;28;20547;-78
2021/03/25 12:26:03;;;;;;;3.80;2.70;;;18.90;94.00;;;;;;5095871;28;20476;-78
2021/03/25 12:28:31;;;;;;;6.60;2.60;;;19.00;96.50;;;;;;5123550;28;20468;-79
2021/03/25 12:31:00;;;;;;;3.27;2.43;;;19.10;96.60;;;;;;5124258;28;20542;-78
2021/03/25 12:33:29;;;;;;;5.07;3.10;;;19.20;96.80;;;;;;5141596;27;20711;-82
2021/03/25 12:35:58;;;;;;;3.23;2.40;;;19.20;96.20;;;;;;5121336;28;20983;-75
2021/03/25 12:38:26;;;;;;;7.43;3.33;;;19.20;96.40;;;;;;5121833;27;21452;-78
2021/03/25 12:40:53;;;;;;;5.40;3.03;;;19.30;95.80;;;;;;5109979;27;20479;-78
2021/03/25 12:43:23;;;;;;;4.50;3.30;;;19.20;95.20;;;;;;5128011;27;20469;-77
2021/03/25 12:45:53;;;;;;;3.43;1.93;;;19.20;94.40;;;;;;5123271;27;20447;-77
2021/03/25 12:48:23;;;;;;;4.93;2.77;;;19.20;94.30;;;;;;5117318;27;20447;-77
2021/03/25 12:50:51;;;;;;;3.77;2.57;;;19.20;95.00;;;;;;5122076;27;20459;-79
2021/03/25 12:53:19;;;;;;;2.37;2.17;;;19.10;95.10;;;;;;5122945;27;20460;-79
2021/03/25 12:55:47;;;;;;;4.40;2.87;;;19.10;94.10;;;;;;5125404;27;20552;-80
2021/03/25 12:58:19;;;;;;;2.83;2.63;;;19.10;94.10;;;;;;5118553;27;20458;-78
2021/03/25 13:00:48;;;;;;;4.03;2.30;;;19.10;91.70;;;;;;5125991;27;20563;-78
2021/03/25 13:03:28;;;;;;;2.90;1.80;;;19.00;90.90;;;;;;5122029;27;20542;-80
2021/03/25 13:05:56;;;;;;;5.03;2.03;;;19.00;91.70;;;;;;5125403;27;20448;-79
2021/03/25 13:08:23;;;;;;;2.13;2.03;;;19.10;91.60;;;;;;5110544;27;20447;-77
2021/03/25 13:11:12;;;;;;;4.30;2.43;;;19.10;92.70;;;;;;5121174;27;20467;-77
2021/03/25 13:13:39;;;;;;;3.27;2.33;;;19.00;90.80;;;;;;5117414;27;20441;-80
2021/03/25 13:16:07;;;;;;;6.60;2.93;;;18.90;91.60;;;;;;5126091;27;20989;-79
2021/03/25 13:18:35;;;;;;;6.40;3.40;;;18.90;91.60;;;;;;5124080;27;20450;-79
2021/03/25 13:21:03;;;;;;;5.60;3.50;;;19.00;93.00;;;;;;5128396;27;20993;-79
2021/03/25 13:23:30;;;;;;;6.03;4.13;;;19.00;92.90;;;;;;5124676;27;20466;-79
2021/03/25 13:25:58;;;;;;;9.20;4.13;;;19.00;93.20;;;;;;5124903;27;20463;-78
2021/03/25 13:28:25;;;;;;;5.77;3.70;;;18.90;92.30;;;;;;5104578;27;21150;-78
2021/03/25 13:30:52;;;;;;;6.60;3.87;;;18.90;92.80;;;;;;5124952;27;20475;-78